Terminal Aerodrome Forecast
Issued by NWS

Home | Current Version | Previous Version | Text Only | Print | Product List | Glossary On
Versions: 1 2 3 4 5 6 7 8 9 10 11 12 13 14 15 16 17 18 19 20 21 22 23 24 25 26 27 28 29 30 31 32 33 34 35 36
000
FTUS43 KDTX 080907 AAA
TAFYIP
TAF AMD
KYIP 080907Z 0809/0906 23007KT P6SM SCT060 BKN120
      TEMPO 0809/0811 OVC035
     FM081400 23007KT P6SM BKN025 OVC050
     FM081800 26007KT P6SM SCT025 BKN050
     FM090200 28006KT P6SM -SHSN SCT035 BKN045=

USA.gov is the U.S. government's official web portal to all federal, state and local government web resources and services.